Time;durP1;ratioP1;P1;durP2;ratioP2;P2;SDS_P1;SDS_P2;PMS_P1;PMS_P2;Temp;Humidity;BMP_temperature;BMP_pressure;BME280_temperature;BME280_humidity;BME280_pressure;Samples;Min_cycle;Max_cycle;Signal;HPM_P1;HPM_P2
2022/05/05 00:00:08;;;;;;;4.30;3.90;;;;;;;;;;2574213;23;20059;-79
2022/05/05 00:01:12;;;;;;;5.18;4.32;;;;;;;;;;2586690;22;19996;-79
2022/05/05 00:02:12;;;;;;;6.70;4.38;;;;;;;;;;2569444;23;19996;-79
2022/05/05 00:03:12;;;;;;;;;;;;;;;;;;2574110;23;20004;-79
2022/05/05 00:04:13;;;;;;;5.23;3.57;;;;;;;;;;2586709;23;20294;-79
2022/05/05 00:05:14;;;;;;;6.30;4.47;;;;;;;;;;2586859;23;20042;-79
2022/05/05 00:06:16;;;;;;;8.82;4.13;;;;;;;;;;2586657;23;20004;-79
2022/05/05 00:07:17;;;;;;;6.78;4.80;;;;;;;;;;2586747;23;20075;-79
2022/05/05 00:08:17;;;;;;;;;;;;;;;;;;2587364;23;19992;-79
2022/05/05 00:09:18;;;;;;;8.03;4.87;;;;;;;;;;2586851;23;19904;-79
2022/05/05 00:14:24;;;;;;;4.63;3.92;;;;;;;;;;2586484;23;20435;-79
2022/05/05 00:15:25;;;;;;;6.03;4.00;;;;;;;;;;2586676;23;20334;-79
2022/05/05 00:16:27;;;;;;;;;;;;;;;;;;2569958;23;20017;-79
2022/05/05 00:17:27;;;;;;;5.30;4.15;;;;;;;;;;2569571;23;19963;-79
2022/05/05 00:18:27;;;;;;;;;;;;;;;;;;2582497;23;20030;-79
2022/05/05 00:19:30;;;;;;;7.50;4.07;;;;;;;;;;2569131;23;19904;-79
2022/05/05 00:20:34;;;;;;;6.78;5.03;;;;;;;;;;2557195;23;20447;-79
2022/05/05 00:21:34;;;;;;;5.50;4.20;;;;;;;;;;2557142;23;20080;-79
2022/05/05 00:22:37;;;;;;;;;;;;;;;;;;2574144;23;20411;-79
2022/05/05 00:23:37;;;;;;;5.53;3.90;;;;;;;;;;2586888;23;19903;-80
2022/05/05 00:24:38;;;;;;;;;;;;;;;;;;2587108;23;19992;-79
2022/05/05 00:25:38;;;;;;;5.90;3.88;;;;;;;;;;2582712;23;20163;-79
2022/05/05 00:26:42;;;;;;;;;;;;;;;;;;2587221;23;20002;-79
2022/05/05 00:27:42;;;;;;;5.30;3.88;;;;;;;;;;2586524;23;20333;-79
2022/05/05 00:28:43;;;;;;;;;;;;;;;;;;2587175;23;19988;-79
2022/05/05 00:29:43;;;;;;;6.40;4.73;;;;;;;;;;2586731;23;19945;-79
2022/05/05 00:30:43;;;;;;;;;;;;;;;;;;2587021;22;19999;-79
2022/05/05 00:31:44;;;;;;;7.30;4.60;;;;;;;;;;2586607;23;19914;-79
2022/05/05 00:32:45;;;;;;;5.65;4.78;;;;;;;;;;2586475;23;20026;-79
2022/05/05 00:33:45;;;;;;;;;;;;;;;;;;2587172;23;20312;-79
2022/05/05 00:34:46;;;;;;;5.47;4.23;;;;;;;;;;2569504;23;19973;-79
2022/05/05 00:35:46;;;;;;;;;;;;;;;;;;2569692;23;20382;-79
2022/05/05 00:36:46;;;;;;;6.43;4.70;;;;;;;;;;2581583;23;19931;-79
2022/05/05 00:37:47;;;;;;;6.03;5.18;;;;;;;;;;2573714;23;19996;-79
2022/05/05 00:38:47;;;;;;;5.70;4.90;;;;;;;;;;2586442;23;20406;-80
2022/05/05 00:39:47;;;;;;;;;;;;;;;;;;2569697;23;20056;-79
2022/05/05 00:40:48;;;;;;;6.30;5.00;;;;;;;;;;2573402;23;19915;-79
2022/05/05 00:41:48;;;;;;;;;;;;;;;;;;2569748;23;20401;-79
2022/05/05 00:42:49;;;;;;;5.10;4.27;;;;;;;;;;2573511;23;19923;-79
2022/05/05 00:43:49;;;;;;;6.50;4.55;;;;;;;;;;2581528;23;19996;-79
2022/05/05 00:44:50;;;;;;;;;;;;;;;;;;2569726;23;19997;-79
2022/05/05 00:45:53;;;;;;;5.93;4.70;;;;;;;;;;2573526;23;20308;-79
2022/05/05 00:46:53;;;;;;;6.07;4.72;;;;;;;;;;2586639;23;19992;-79
2022/05/05 00:48:03;;;;;;;;;;;;;;;;;;2587069;23;19988;-79
2022/05/05 00:49:04;;;;;;;7.82;5.20;;;;;;;;;;2569082;23;19931;-79
2022/05/05 00:50:05;;;;;;;6.05;4.55;;;;;;;;;;2569545;23;20004;-79
2022/05/05 00:51:06;;;;;;;;;;;;;;;;;;2586697;22;20024;-79
2022/05/05 00:52:07;;;;;;;6.17;5.03;;;;;;;;;;2569426;23;19962;-79
2022/05/05 00:53:07;;;;;;;;;;;;;;;;;;2557283;23;20062;-79
2022/05/05 00:54:07;;;;;;;8.67;5.33;;;;;;;;;;2569194;23;19910;-79
2022/05/05 00:55:10;;;;;;;;;;;;;;;;;;2586891;23;19996;-79
2022/05/05 00:56:15;;;;;;;7.43;5.32;;;;;;;;;;2568336;23;19908;-79
2022/05/05 00:57:17;;;;;;;7.07;4.90;;;;;;;;;;2573586;23;20000;-79
2022/05/05 00:58:18;;;;;;;7.28;5.20;;;;;;;;;;2585307;23;20022;-79
2022/05/05 00:59:19;;;;;;;7.45;4.78;;;;;;;;;;2568266;23;20411;-79
2022/05/05 01:00:19;;;;;;;;;;;;;;;;;;2573766;23;19993;-79
2022/05/05 01:01:22;;;;;;;10.13;5.23;;;;;;;;;;2586503;22;19923;-79
2022/05/05 01:02:23;;;;;;;6.30;5.22;;;;;;;;;;2569059;23;20062;-79
2022/05/05 01:03:23;;;;;;;;;;;;;;;;;;2569909;23;20462;-79
2022/05/05 01:04:25;;;;;;;7.23;4.83;;;;;;;;;;2569354;23;19935;-79
2022/05/05 01:05:29;;;;;;;5.57;4.50;;;;;;;;;;2569376;23;20008;-79
2022/05/05 01:06:32;;;;;;;8.00;4.88;;;;;;;;;;2582468;23;20004;-79
2022/05/05 01:07:33;;;;;;;5.63;4.32;;;;;;;;;;2568938;23;20005;-79
2022/05/05 01:08:34;;;;;;;;;;;;;;;;;;2544907;23;20144;-79
2022/05/05 01:09:37;;;;;;;6.53;4.60;;;;;;;;;;2557134;23;19974;-79
2022/05/05 01:10:37;;;;;;;5.40;3.90;;;;;;;;;;2556785;23;20063;-80
2022/05/05 01:11:38;;;;;;;;;;;;;;;;;;2557600;23;20421;-80
2022/05/05 01:12:41;;;;;;;6.13;4.83;;;;;;;;;;2573618;23;20220;-80
2022/05/05 01:13:42;;;;;;;5.22;4.68;;;;;;;;;;2569211;23;20083;-79
2022/05/05 01:14:44;;;;;;;4.90;4.30;;;;;;;;;;2557030;23;20008;-79
2022/05/05 01:15:45;;;;;;;5.22;4.35;;;;;;;;;;2556782;23;20008;-79
2022/05/05 01:16:45;;;;;;;;;;;;;;;;;;2557273;23;19993;-79
2022/05/05 01:17:46;;;;;;;6.87;5.30;;;;;;;;;;2573313;23;19914;-79
2022/05/05 01:18:46;;;;;;;5.10;4.57;;;;;;;;;;2586683;23;20403;-79
2022/05/05 01:19:47;;;;;;;7.10;5.15;;;;;;;;;;2569166;23;20384;-79
2022/05/05 01:20:49;;;;;;;6.10;4.25;;;;;;;;;;2568888;23;20028;-79
2022/05/05 01:21:57;;;;;;;8.40;4.78;;;;;;;;;;2569183;23;20382;-79
2022/05/05 01:22:59;;;;;;;5.00;3.78;;;;;;;;;;2570325;23;19988;-79
2022/05/05 01:24:00;;;;;;;7.72;4.65;;;;;;;;;;2586675;23;20010;-80
2022/05/05 01:28:57;;;;;;;8.55;5.13;;;;;;;;;;2586625;23;20438;-79
2022/05/05 01:29:59;;;;;;;;;;;;;;;;;;2586910;23;20000;-79
2022/05/05 01:30:59;;;;;;;5.65;4.55;;;;;;;;;;2586419;22;19969;-79
2022/05/05 01:32:00;;;;;;;7.63;4.65;;;;;;;;;;2568886;23;20434;-79
2022/05/05 01:33:00;;;;;;;;;;;;;;;;;;2557478;23;20432;-79
2022/05/05 01:34:01;;;;;;;7.23;4.73;;;;;;;;;;2569184;23;19958;-79
2022/05/05 01:35:01;;;;;;;;;;;;;;;;;;2586540;23;20323;-80
2022/05/05 01:36:05;;;;;;;14.83;4.87;;;;;;;;;;2586815;23;19907;-79
2022/05/05 01:37:10;;;;;;;8.27;4.90;;;;;;;;;;2586523;23;20063;-79
2022/05/05 01:38:13;;;;;;;4.90;4.05;;;;;;;;;;2586404;23;19999;-79
2022/05/05 01:39:14;;;;;;;8.63;4.78;;;;;;;;;;2586701;23;20288;-79
2022/05/05 01:40:17;;;;;;;;;;;;;;;;;;2586988;23;20020;-79
2022/05/05 01:41:18;;;;;;;7.05;4.28;;;;;;;;;;2569066;23;19904;-80
2022/05/05 01:42:29;;;;;;;5.97;4.35;;;;;;;;;;2573562;23;19992;-79
2022/05/05 01:43:35;;;;;;;4.85;3.97;;;;;;;;;;2569195;23;20042;-79
2022/05/05 01:45:01;;;;;;;5.40;4.22;;;;;;;;;;2558367;23;20005;-79
2022/05/05 01:46:04;;;;;;;5.22;4.50;;;;;;;;;;2573734;23;20011;-79
2022/05/05 01:47:07;;;;;;;5.70;4.28;;;;;;;;;;2569316;23;20000;-79
2022/05/05 01:48:16;;;;;;;7.18;4.35;;;;;;;;;;2569716;23;20001;-79
2022/05/05 01:49:21;;;;;;;8.60;4.88;;;;;;;;;;2581770;23;20026;-79
2022/05/05 01:50:25;;;;;;;5.90;3.97;;;;;;;;;;2586095;23;20016;-79
2022/05/05 01:51:26;;;;;;;7.28;4.47;;;;;;;;;;2585992;22;20453;-80
2022/05/05 01:52:29;;;;;;;;;;;;;;;;;;2569537;23;20000;-79
2022/05/05 01:53:36;;;;;;;6.15;4.70;;;;;;;;;;2573889;23;19956;-79
2022/05/05 01:54:38;;;;;;;4.75;4.20;;;;;;;;;;2573296;23;20004;-79
2022/05/05 01:55:41;;;;;;;6.03;4.03;;;;;;;;;;2556912;23;20424;-79
2022/05/05 01:56:44;;;;;;;7.85;4.15;;;;;;;;;;2573721;23;19997;-79
2022/05/05 01:57:45;;;;;;;4.95;4.20;;;;;;;;;;2586349;23;20437;-79
2022/05/05 01:58:45;;;;;;;;;;;;;;;;;;2587364;23;20019;-79
2022/05/05 01:59:51;;;;;;;6.27;4.00;;;;;;;;;;2581862;23;19979;-80
2022/05/05 02:00:54;;;;;;;4.93;3.90;;;;;;;;;;2568940;23;20012;-79
2022/05/05 02:02:00;;;;;;;5.72;4.43;;;;;;;;;;2574617;23;20067;-79
2022/05/05 02:03:01;;;;;;;5.38;3.88;;;;;;;;;;2569889;23;20009;-79
2022/05/05 02:04:11;;;;;;;4.97;4.45;;;;;;;;;;2569859;23;20013;-79
2022/05/05 02:05:13;;;;;;;6.22;4.15;;;;;;;;;;2569843;23;20034;-79
2022/05/05 02:06:20;;;;;;;3.60;3.10;;;;;;;;;;2574297;23;20004;-79
2022/05/05 02:07:23;;;;;;;4.50;3.67;;;;;;;;;;2586607;23;19996;-79
2022/05/05 02:08:26;;;;;;;4.55;4.07;;;;;;;;;;2569922;23;19997;-79
2022/05/05 02:09:36;;;;;;;6.25;3.65;;;;;;;;;;2570376;23;20001;-79
2022/05/05 02:10:39;;;;;;;4.80;4.00;;;;;;;;;;2586807;23;20078;-79
2022/05/05 02:11:43;;;;;;;4.10;3.30;;;;;;;;;;2587036;22;19988;-79
2022/05/05 02:13:01;;;;;;;;;;;;;;;;;;;;;
2022/05/05 02:14:09;;;;;;;7.40;4.45;;;;;;;;;;2587212;23;20000;-79
2022/05/05 02:16:31;;;;;;;6.60;3.95;;;;;;;;;;2574577;23;20318;-80
2022/05/05 02:17:34;;;;;;;;;;;;;;;;;;2570299;23;20023;-79
2022/05/05 02:18:37;;;;;;;5.70;3.78;;;;;;;;;;2574588;23;19912;-79
2022/05/05 02:19:42;;;;;;;5.38;3.30;;;;;;;;;;2569736;23;19997;-79
2022/05/05 02:20:45;;;;;;;4.70;3.58;;;;;;;;;;2575077;23;19997;-79
2022/05/05 02:21:46;;;;;;;5.00;4.25;;;;;;;;;;2583297;23;20008;-79
2022/05/05 02:22:49;;;;;;;;;;;;;;;;;;2582845;23;20059;-79
2022/05/05 02:23:59;;;;;;;5.97;4.22;;;;;;;;;;2586458;23;20196;-79
2022/05/05 02:25:03;;;;;;;6.65;4.03;;;;;;;;;;2569933;23;20008;-79
2022/05/05 02:26:04;;;;;;;4.22;3.42;;;;;;;;;;2570324;23;20379;-79
2022/05/05 02:27:08;;;;;;;5.00;3.53;;;;;;;;;;2586714;23;19996;-79
2022/05/05 02:28:19;;;;;;;;;;;;;;;;;;;;;
2022/05/05 02:29:19;;;;;;;7.63;3.95;;;;;;;;;;2576154;23;20016;-79
2022/05/05 02:30:24;;;;;;;5.82;3.67;;;;;;;;;;2587233;23;20067;-79
2022/05/05 02:31:27;;;;;;;4.00;3.42;;;;;;;;;;2569531;23;20484;-79
2022/05/05 02:32:30;;;;;;;4.63;3.72;;;;;;;;;;2574253;23;20063;-79
2022/05/05 02:33:35;;;;;;;6.07;3.67;;;;;;;;;;2587155;23;20004;-79
2022/05/05 02:34:43;;;;;;;4.78;3.72;;;;;;;;;;2569792;23;20441;-79
2022/05/05 02:35:43;;;;;;;7.53;4.32;;;;;;;;;;2562976;23;19993;-79
2022/05/05 02:39:22;;;;;;;5.28;3.53;;;;;;;;;;2586972;23;20310;-79
2022/05/05 02:40:23;;;;;;;3.83;3.42;;;;;;;;;;2569878;23;20297;-80
2022/05/05 02:41:23;;;;;;;;;;;;;;;;;;2557837;23;20063;-80
2022/05/05 02:42:24;;;;;;;8.57;3.23;;;;;;;;;;2569541;23;20294;-79
2022/05/05 02:43:24;;;;;;;;;;;;;;;;;;2570430;23;20016;-79
2022/05/05 02:44:26;;;;;;;5.07;3.30;;;;;;;;;;2573850;23;19922;-79
2022/05/05 02:45:26;;;;;;;3.33;3.03;;;;;;;;;;2569789;23;20115;-79
2022/05/05 02:46:27;;;;;;;;;;;;;;;;;;2570291;23;19992;-79
2022/05/05 02:47:30;;;;;;;4.80;3.63;;;;;;;;;;2582421;23;19945;-79
2022/05/05 02:48:30;;;;;;;4.22;3.47;;;;;;;;;;2586408;23;19992;-79
2022/05/05 02:49:31;;;;;;;;;;;;;;;;;;2570335;23;20404;-79
2022/05/05 02:50:32;;;;;;;4.13;3.50;;;;;;;;;;2573781;23;19904;-79
2022/05/05 02:51:32;;;;;;;3.75;3.30;;;;;;;;;;2586784;22;20000;-79
2022/05/05 02:52:33;;;;;;;;;;;;;;;;;;2587486;23;19992;-79
2022/05/05 02:54:54;;;;;;;5.22;3.55;;;;;;;;;;2582585;23;20174;-80
2022/05/05 02:55:55;;;;;;;4.80;3.45;;;;;;;;;;2569466;23;20071;-79
2022/05/05 02:56:55;;;;;;;;;;;;;;;;;;2569972;23;20004;-79
2022/05/05 02:57:58;;;;;;;6.73;4.17;;;;;;;;;;2582047;23;19914;-79
2022/05/05 02:58:59;;;;;;;4.68;3.60;;;;;;;;;;2586409;23;20008;-79
2022/05/05 02:59:59;;;;;;;;;;;;;;;;;;2569668;23;20308;-79
2022/05/05 03:01:02;;;;;;;4.30;3.53;;;;;;;;;;2569376;23;20294;-79
2022/05/05 03:02:03;;;;;;;4.18;3.78;;;;;;;;;;2569626;23;20083;-79
2022/05/05 03:03:04;;;;;;;;;;;;;;;;;;2570149;23;20001;-79
2022/05/05 03:04:07;;;;;;;5.65;3.58;;;;;;;;;;2573604;23;20339;-79
2022/05/05 03:05:10;;;;;;;4.47;3.65;;;;;;;;;;2569656;23;20042;-78
2022/05/05 03:06:13;;;;;;;8.77;3.40;;;;;;;;;;2557343;23;20340;-79
2022/05/05 03:07:14;;;;;;;4.60;3.80;;;;;;;;;;2569415;23;20000;-79
2022/05/05 03:08:16;;;;;;;;;;;;;;;;;;2574519;23;20499;-79
2022/05/05 03:09:18;;;;;;;5.22;3.60;;;;;;;;;;2581881;23;19946;-79
2022/05/05 03:10:18;;;;;;;3.67;3.38;;;;;;;;;;2586480;23;20241;-79
2022/05/05 03:11:19;;;;;;;;;;;;;;;;;;2587305;22;20034;-79
2022/05/05 03:12:19;;;;;;;3.63;3.27;;;;;;;;;;2586270;23;19914;-79
2022/05/05 03:13:22;;;;;;;5.82;3.85;;;;;;;;;;2569195;23;19997;-78
2022/05/05 03:14:22;;;;;;;6.82;3.92;;;;;;;;;;2574022;23;20000;-79
2022/05/05 03:15:23;;;;;;;;;;;;;;;;;;2587145;23;20045;-79
2022/05/05 03:16:26;;;;;;;6.40;3.83;;;;;;;;;;2586894;23;20294;-78
2022/05/05 03:17:26;;;;;;;4.25;3.70;;;;;;;;;;2586637;23;19992;-79
2022/05/05 03:18:30;;;;;;;;;;;;;;;;;;2587283;23;20292;-79
2022/05/05 03:19:30;;;;;;;5.35;3.75;;;;;;;;;;2586758;23;19903;-79
2022/05/05 03:20:30;;;;;;;;;;;;;;;;;;2587236;23;19996;-79
2022/05/05 03:21:31;;;;;;;7.32;4.50;;;;;;;;;;2569388;23;20233;-80
2022/05/05 03:22:31;;;;;;;5.65;4.10;;;;;;;;;;2556708;23;20441;-79
2022/05/05 03:23:32;;;;;;;;;;;;;;;;;;2557571;23;20419;-79
2022/05/05 03:24:32;;;;;;;5.40;4.73;;;;;;;;;;2573619;23;19914;-79
2022/05/05 03:25:33;;;;;;;6.68;4.50;;;;;;;;;;2586735;23;20000;-79
2022/05/05 03:26:33;;;;;;;;;;;;;;;;;;2587239;23;20015;-79
2022/05/05 03:27:36;;;;;;;6.83;4.07;;;;;;;;;;2586805;23;20345;-79
2022/05/05 03:28:37;;;;;;;6.03;4.45;;;;;;;;;;2586752;23;20327;-79
2022/05/05 03:29:37;;;;;;;;;;;;;;;;;;2569833;23;19992;-79
2022/05/05 03:30:40;;;;;;;5.03;4.03;;;;;;;;;;2569324;23;19904;-79
2022/05/05 03:31:44;;;;;;;4.30;3.67;;;;;;;;;;2573921;23;20028;-79
2022/05/05 03:32:44;;;;;;;5.65;3.80;;;;;;;;;;2582078;23;20000;-79
2022/05/05 03:33:45;;;;;;;;;;;;;;;;;;2586735;23;20508;-78
2022/05/05 03:34:45;;;;;;;6.10;3.73;;;;;;;;;;2586851;23;19981;-79
2022/05/05 03:35:46;;;;;;;8.57;3.75;;;;;;;;;;2581667;23;20081;-78
2022/05/05 03:36:46;;;;;;;;;;;;;;;;;;2586893;23;19992;-79
2022/05/05 03:37:46;;;;;;;3.78;3.28;;;;;;;;;;2569258;23;20312;-78
2022/05/05 03:38:47;;;;;;;;;;;;;;;;;;2574156;23;20050;-78
2022/05/05 03:39:47;;;;;;;4.65;3.58;;;;;;;;;;2586775;23;19911;-78
2022/05/05 03:40:47;;;;;;;;;;;;;;;;;;2587029;22;20022;-78
2022/05/05 03:41:48;;;;;;;5.78;3.90;;;;;;;;;;2569730;23;20324;-79
2022/05/05 03:42:48;;;;;;;;;;;;;;;;;;2570169;23;20042;-80
2022/05/05 03:43:49;;;;;;;5.03;3.87;;;;;;;;;;2586897;23;20234;-78
2022/05/05 03:44:50;;;;;;;;;;;;;;;;;;2583025;23;20012;-79
2022/05/05 03:45:50;;;;;;;4.47;3.13;;;;;;;;;;2569193;23;20391;-78
2022/05/05 03:46:50;;;;;;;;;;;;;;;;;;2569995;23;19992;-78
2022/05/05 03:47:51;;;;;;;4.87;3.97;;;;;;;;;;2569359;23;19907;-78
2022/05/05 03:48:52;;;;;;;;;;;;;;;;;;2586741;23;19996;-78
2022/05/05 03:49:54;;;;;;;7.33;3.90;;;;;;;;;;2586743;23;19903;-78
2022/05/05 03:50:58;;;;;;;8.07;3.67;;;;;;;;;;2586391;22;20320;-80
2022/05/05 03:52:03;;;;;;;4.93;3.78;;;;;;;;;;2586638;23;19988;-80
2022/05/05 03:53:07;;;;;;;5.10;4.25;;;;;;;;;;2586553;23;20082;-78
2022/05/05 03:54:10;;;;;;;9.45;4.07;;;;;;;;;;2586469;23;20085;-78
2022/05/05 03:55:11;;;;;;;5.18;3.90;;;;;;;;;;2586716;23;19992;-78
2022/05/05 03:56:11;;;;;;;;;;;;;;;;;;2587043;23;20023;-78
2022/05/05 03:57:11;;;;;;;6.93;3.97;;;;;;;;;;2586665;23;19911;-78
2022/05/05 03:58:14;;;;;;;9.00;3.63;;;;;;;;;;2569282;23;20319;-81
2022/05/05 03:59:17;;;;;;;3.92;3.33;;;;;;;;;;2569933;23;20012;-80
2022/05/05 04:00:20;;;;;;;5.55;3.63;;;;;;;;;;2569277;23;20377;-80
2022/05/05 04:01:21;;;;;;;6.22;3.50;;;;;;;;;;2557329;23;20012;-80
2022/05/05 04:02:21;;;;;;;;;;;;;;;;;;2574097;23;20496;-80
2022/05/05 04:03:30;;;;;;;6.97;3.77;;;;;;;;;;2586782;23;20317;-81
2022/05/05 04:04:33;;;;;;;4.95;3.75;;;;;;;;;;2569430;23;20000;-80
2022/05/05 04:05:39;;;;;;;4.53;3.70;;;;;;;;;;2574097;23;20004;-80
2022/05/05 04:06:40;;;;;;;5.03;3.92;;;;;;;;;;2586947;23;20084;-79
2022/05/05 04:07:42;;;;;;;;;;;;;;;;;;2587333;23;20315;-79
2022/05/05 04:08:42;;;;;;;4.93;3.42;;;;;;;;;;2586786;23;20302;-79
2022/05/05 04:09:45;;;;;;;;;;;;;;;;;;2587291;23;20410;-79
2022/05/05 04:10:46;;;;;;;6.47;4.90;;;;;;;;;;2582412;22;19904;-79
2022/05/05 04:11:46;;;;;;;;;;;;;;;;;;2569837;23;19989;-79
2022/05/05 04:12:49;;;;;;;6.80;4.00;;;;;;;;;;2573536;23;19903;-79
2022/05/05 04:13:50;;;;;;;5.07;3.42;;;;;;;;;;2586591;23;20063;-79
2022/05/05 04:14:51;;;;;;;;;;;;;;;;;;2569837;23;20416;-80
2022/05/05 04:15:52;;;;;;;5.13;3.80;;;;;;;;;;2569531;23;19931;-80
2022/05/05 04:16:52;;;;;;;3.65;3.10;;;;;;;;;;2586265;23;20637;-79
2022/05/05 04:17:55;;;;;;;;;;;;;;;;;;2569873;23;19992;-80
2022/05/05 04:19:06;;;;;;;4.20;3.17;;;;;;;;;;2573939;23;19942;-79
2022/05/05 04:20:07;;;;;;;;;;;;;;;;;;2587127;23;19996;-79
2022/05/05 04:21:08;;;;;;;5.80;3.95;;;;;;;;;;2586682;22;19938;-79
2022/05/05 04:22:18;;;;;;;;;;;;;;;;;;;;;
2022/05/05 04:23:19;;;;;;;5.15;3.83;;;;;;;;;;2586920;23;20007;-79
2022/05/05 04:24:25;;;;;;;4.47;3.40;;;;;;;;;;2586259;23;20422;-79
2022/05/05 04:25:31;;;;;;;3.40;3.10;;;;;;;;;;2569338;23;20506;-79
2022/05/05 04:26:32;;;;;;;4.57;3.40;;;;;;;;;;2574634;23;20307;-79
2022/05/05 04:27:35;;;;;;;;;;;;;;;;;;2587117;23;20007;-79
2022/05/05 04:28:35;;;;;;;6.20;3.60;;;;;;;;;;2582675;23;20223;-79
2022/05/05 04:29:38;;;;;;;;;;;;;;;;;;2587020;23;20037;-78
2022/05/05 04:30:45;;;;;;;3.92;3.30;;;;;;;;;;2581970;23;19903;-79
2022/05/05 04:31:48;;;;;;;4.22;3.10;;;;;;;;;;2573440;23;20395;-79
2022/05/05 04:32:52;;;;;;;5.75;3.33;;;;;;;;;;2569743;23;20309;-79
2022/05/05 04:33:55;;;;;;;5.28;3.78;;;;;;;;;;2586165;23;19995;-79
2022/05/05 04:35:05;;;;;;;4.10;3.25;;;;;;;;;;2568958;23;20020;-80
2022/05/05 04:36:14;;;;;;;4.28;2.92;;;;;;;;;;2575546;23;20451;-80
2022/05/05 04:37:19;;;;;;;3.30;2.92;;;;;;;;;;2569321;23;20000;-81
2022/05/05 04:38:22;;;;;;;3.75;3.15;;;;;;;;;;2573976;23;20007;-80
2022/05/05 04:39:24;;;;;;;5.65;2.72;;;;;;;;;;2586028;23;19996;-79
2022/05/05 04:40:30;;;;;;;4.95;2.92;;;;;;;;;;2569195;23;19996;-80
2022/05/05 04:41:32;;;;;;;3.90;2.95;;;;;;;;;;2574390;23;20027;-80
2022/05/05 04:42:35;;;;;;;4.63;3.30;;;;;;;;;;2586557;23;20331;-79
2022/05/05 04:43:36;;;;;;;3.40;3.10;;;;;;;;;;2569137;23;19996;-79
2022/05/05 04:44:39;;;;;;;3.60;2.75;;;;;;;;;;2569184;23;20436;-80
2022/05/05 04:45:43;;;;;;;4.30;3.58;;;;;;;;;;2569287;23;20005;-79
2022/05/05 04:46:46;;;;;;;4.35;3.28;;;;;;;;;;2557442;23;19989;-79
2022/05/05 04:47:49;;;;;;;5.75;3.40;;;;;;;;;;2557530;23;20000;-79
2022/05/05 04:48:49;;;;;;;5.05;3.38;;;;;;;;;;2573782;23;20335;-79
2022/05/05 04:49:51;;;;;;;4.15;3.63;;;;;;;;;;2581520;23;19992;-79
2022/05/05 04:50:58;;;;;;;5.90;4.38;;;;;;;;;;2585585;22;20303;-79
2022/05/05 04:51:59;;;;;;;5.97;3.63;;;;;;;;;;2573247;23;20003;-79
2022/05/05 04:52:59;;;;;;;4.40;3.75;;;;;;;;;;2573316;23;20022;-80
2022/05/05 04:54:02;;;;;;;4.55;3.75;;;;;;;;;;2586487;23;19999;-80
2022/05/05 04:55:03;;;;;;;4.13;3.55;;;;;;;;;;2569009;23;20001;-79
2022/05/05 04:56:04;;;;;;;4.35;3.72;;;;;;;;;;2568939;23;20094;-79
2022/05/05 04:57:05;;;;;;;7.13;3.97;;;;;;;;;;2573220;23;20041;-79
2022/05/05 04:58:05;;;;;;;8.85;3.55;;;;;;;;;;2573331;23;20000;-80
2022/05/05 04:59:05;;;;;;;5.97;3.65;;;;;;;;;;2569051;23;20411;-79
2022/05/05 05:00:16;;;;;;;5.05;3.67;;;;;;;;;;2573053;23;19992;-79
2022/05/05 05:01:17;;;;;;;4.03;3.63;;;;;;;;;;2586153;22;19992;-80
2022/05/05 05:02:17;;;;;;;5.18;3.63;;;;;;;;;;2585725;23;20027;-80
2022/05/05 05:03:32;;;;;;;8.35;3.75;;;;;;;;;;2586407;23;20016;-80
2022/05/05 05:04:33;;;;;;;4.70;3.45;;;;;;;;;;2586275;23;20076;-81
2022/05/05 05:05:34;;;;;;;6.60;3.80;;;;;;;;;;2569096;23;20420;-80
2022/05/05 05:06:35;;;;;;;5.32;3.22;;;;;;;;;;2573200;23;19992;-80
2022/05/05 05:07:35;;;;;;;5.75;3.63;;;;;;;;;;2568932;23;20446;-78
2022/05/05 05:08:39;;;;;;;7.60;3.22;;;;;;;;;;2573308;23;20076;-79
2022/05/05 05:09:40;;;;;;;3.58;3.13;;;;;;;;;;2569210;23;20000;-78
2022/05/05 05:10:45;;;;;;;10.75;3.58;;;;;;;;;;2568895;23;20016;-79
2022/05/05 05:11:45;;;;;;;4.43;2.67;;;;;;;;;;2585862;23;20000;-79
2022/05/05 05:12:48;;;;;;;3.38;2.83;;;;;;;;;;2586196;23;20426;-81
2022/05/05 05:13:48;;;;;;;5.70;2.70;;;;;;;;;;2569187;23;20000;-79
2022/05/05 05:15:00;;;;;;;4.40;2.58;;;;;;;;;;2573151;23;20450;-78
2022/05/05 05:16:17;;;;;;;3.50;2.67;;;;;;;;;;2567905;23;20000;-81
2022/05/05 05:17:30;;;;;;;4.55;3.08;;;;;;;;;;2546748;23;20088;-80
2022/05/05 05:18:35;;;;;;;3.33;3.00;;;;;;;;;;2561816;23;20079;-80
2022/05/05 05:19:37;;;;;;;6.35;2.88;;;;;;;;;;2556880;23;20009;-78
2022/05/05 05:20:38;;;;;;;3.28;2.85;;;;;;;;;;2573416;23;19992;-78
2022/05/05 05:21:49;;;;;;;4.38;2.90;;;;;;;;;;2582294;22;20071;-78
2022/05/05 05:22:49;;;;;;;;;;;;;;;;;;2586919;23;19992;-79
2022/05/05 05:23:53;;;;;;;11.88;3.67;;;;;;;;;;2586218;23;19937;-78
2022/05/05 05:24:53;;;;;;;4.65;3.60;;;;;;;;;;2569397;23;19996;-78
2022/05/05 05:25:54;;;;;;;6.53;4.85;;;;;;;;;;2555505;23;20533;-79
2022/05/05 05:26:54;;;;;;;5.97;3.50;;;;;;;;;;2556215;23;20087;-78
2022/05/05 05:27:57;;;;;;;5.03;3.70;;;;;;;;;;2569064;23;20074;-78
2022/05/05 05:29:01;;;;;;;5.38;3.47;;;;;;;;;;2573661;23;19996;-78
2022/05/05 05:30:06;;;;;;;4.40;3.67;;;;;;;;;;2585399;23;20016;-78
2022/05/05 05:31:09;;;;;;;6.03;4.10;;;;;;;;;;2568028;23;20622;-79
2022/05/05 05:32:12;;;;;;;4.18;3.65;;;;;;;;;;2556921;23;20320;-79
2022/05/05 05:33:20;;;;;;;5.47;3.50;;;;;;;;;;2569614;23;20083;-78
2022/05/05 05:34:30;;;;;;;5.25;3.78;;;;;;;;;;2572993;23;20004;-79
2022/05/05 05:35:34;;;;;;;5.13;3.45;;;;;;;;;;2575063;23;20131;-79
2022/05/05 05:36:37;;;;;;;7.13;4.47;;;;;;;;;;2587014;23;19992;-79
2022/05/05 05:37:40;;;;;;;5.53;3.75;;;;;;;;;;2587084;23;19992;-79
2022/05/05 05:38:45;;;;;;;5.78;4.03;;;;;;;;;;2587176;23;20003;-79
2022/05/05 05:39:46;;;;;;;3.80;3.40;;;;;;;;;;2585838;23;20059;-79
2022/05/05 05:40:48;;;;;;;5.95;3.13;;;;;;;;;;2586281;22;20411;-79
2022/05/05 05:41:51;;;;;;;6.32;3.35;;;;;;;;;;2587129;23;20446;-79
2022/05/05 05:42:52;;;;;;;4.13;2.90;;;;;;;;;;2569882;23;20400;-80
2022/05/05 05:43:55;;;;;;;4.78;2.95;;;;;;;;;;2556468;23;20042;-79
2022/05/05 05:44:55;;;;;;;4.10;3.20;;;;;;;;;;2574595;23;20324;-80
2022/05/05 05:45:58;;;;;;;2.95;2.63;;;;;;;;;;2587357;23;20027;-79
2022/05/05 05:47:00;;;;;;;3.20;2.90;;;;;;;;;;2587256;23;20067;-80
2022/05/05 05:48:12;;;;;;;7.00;2.63;;;;;;;;;;2587772;23;20024;-80
2022/05/05 05:49:12;;;;;;;3.20;2.35;;;;;;;;;;2569744;23;20364;-80
2022/05/05 05:50:15;;;;;;;2.90;2.33;;;;;;;;;;2557344;23;19997;-81
2022/05/05 05:51:23;;;;;;;3.42;3.03;;;;;;;;;;2557568;23;20012;-80
2022/05/05 05:52:31;;;;;;;4.35;2.83;;;;;;;;;;2575524;23;19997;-80
2022/05/05 05:53:32;;;;;;;3.30;2.67;;;;;;;;;;2574152;23;20335;-80
2022/05/05 05:54:33;;;;;;;3.17;2.63;;;;;;;;;;2574044;23;20067;-79
2022/05/05 05:55:33;;;;;;;4.43;2.78;;;;;;;;;;2587075;23;19996;-80
2022/05/05 05:56:34;;;;;;;2.92;2.45;;;;;;;;;;2587291;23;19992;-79
2022/05/05 05:57:34;;;;;;;5.32;2.83;;;;;;;;;;2587139;23;20480;-80
2022/05/05 05:58:38;;;;;;;4.85;2.67;;;;;;;;;;2587281;23;20121;-80
2022/05/05 05:59:38;;;;;;;3.42;2.65;;;;;;;;;;2569676;23;19992;-80
2022/05/05 06:00:39;;;;;;;4.28;2.92;;;;;;;;;;2573895;23;19992;-80
2022/05/05 06:04:20;;;;;;;3.35;2.08;;;;;;;;;;2587338;23;19996;-80
2022/05/05 06:05:23;;;;;;;4.63;2.35;;;;;;;;;;2570331;23;20331;-79
2022/05/05 06:06:24;;;;;;;3.15;2.85;;;;;;;;;;2570405;23;20001;-80
2022/05/05 06:07:32;;;;;;;3.15;2.60;;;;;;;;;;2586438;23;20026;-79
2022/05/05 06:08:32;;;;;;;2.85;2.30;;;;;;;;;;2587155;23;20435;-79
2022/05/05 06:09:36;;;;;;;1.95;1.85;;;;;;;;;;2587282;23;20049;-79
2022/05/05 06:10:38;;;;;;;2.50;2.30;;;;;;;;;;2569818;23;20083;-79
2022/05/05 06:11:41;;;;;;;2.53;2.00;;;;;;;;;;2574027;23;19992;-79
2022/05/05 06:12:57;;;;;;;3.40;2.40;;;;;;;;;;2582331;23;20322;-80
2022/05/05 06:13:57;;;;;;;4.18;2.08;;;;;;;;;;2569522;23;19996;-79
2022/05/05 06:15:00;;;;;;;3.47;2.10;;;;;;;;;;2557240;23;20008;-80
2022/05/05 06:16:14;;;;;;;3.80;2.30;;;;;;;;;;2570185;23;20000;-79
2022/05/05 06:17:14;;;;;;;2.70;2.20;;;;;;;;;;2587037;23;20126;-79
2022/05/05 06:18:22;;;;;;;2.75;2.20;;;;;;;;;;2586941;23;20057;-80
2022/05/05 06:19:23;;;;;;;5.22;2.65;;;;;;;;;;2573767;23;19997;-79
2022/05/05 06:20:26;;;;;;;3.50;2.70;;;;;;;;;;2573918;23;20007;-79
2022/05/05 06:21:26;;;;;;;3.63;2.45;;;;;;;;;;2586864;22;20004;-80
2022/05/05 06:22:29;;;;;;;2.50;2.30;;;;;;;;;;2587328;23;19996;-80
2022/05/05 06:23:33;;;;;;;2.58;2.38;;;;;;;;;;2587401;23;20067;-80
2022/05/05 06:24:33;;;;;;;3.17;2.30;;;;;;;;;;2587318;23;19992;-79
2022/05/05 06:25:33;;;;;;;4.07;2.65;;;;;;;;;;2587220;23;20319;-79
2022/05/05 06:26:35;;;;;;;2.88;2.55;;;;;;;;;;2582031;23;20007;-81
2022/05/05 06:27:35;;;;;;;2.35;2.15;;;;;;;;;;2582483;23;20079;-82
2022/05/05 06:28:36;;;;;;;2.72;2.10;;;;;;;;;;2569474;23;19997;-79
2022/05/05 06:29:36;;;;;;;2.22;2.00;;;;;;;;;;2573888;23;20023;-81
2022/05/05 06:30:37;;;;;;;2.38;2.00;;;;;;;;;;2586778;23;19996;-79
2022/05/05 06:31:37;;;;;;;4.35;1.83;;;;;;;;;;2583108;22;20003;-79
2022/05/05 06:32:37;;;;;;;3.08;2.05;;;;;;;;;;2586840;23;20578;-79
2022/05/05 06:33:40;;;;;;;2.42;2.22;;;;;;;;;;2569605;23;20020;-80
2022/05/05 06:34:40;;;;;;;2.08;1.55;;;;;;;;;;2570198;23;20002;-80
2022/05/05 06:35:43;;;;;;;3.08;1.80;;;;;;;;;;2587104;23;20441;-81
2022/05/05 06:36:44;;;;;;;2.55;2.00;;;;;;;;;;2586861;23;19992;-80
2022/05/05 06:37:50;;;;;;;2.22;1.88;;;;;;;;;;2586974;23;20011;-80
2022/05/05 06:38:52;;;;;;;2.17;1.85;;;;;;;;;;2587075;23;20068;-80
2022/05/05 06:39:52;;;;;;;2.08;1.88;;;;;;;;;;2569637;23;19988;-80